createdAt,value
2023-01-30T00:00:10.858Z,2.16
2023-01-30T00:01:10.810Z,2.16
2023-01-30T00:02:11.381Z,2.19
2023-01-30T00:03:10.770Z,2.19
2023-01-30T00:04:10.867Z,2.22
2023-01-30T00:05:10.846Z,2.20
2023-01-30T00:06:10.767Z,2.20
2023-01-30T00:07:10.784Z,2.22
2023-01-30T00:08:10.799Z,2.22
2023-01-30T00:09:10.812Z,2.23
2023-01-30T00:10:10.738Z,2.26
2023-01-30T00:11:10.731Z,2.22
2023-01-30T00:12:10.735Z,2.22
2023-01-30T00:13:10.737Z,2.22
2023-01-30T00:14:10.684Z,2.22
2023-01-30T00:15:10.731Z,2.26
2023-01-30T00:16:10.751Z,2.22
2023-01-30T00:17:10.531Z,2.20
2023-01-30T00:18:10.675Z,2.22
2023-01-30T00:19:10.635Z,2.20
2023-01-30T00:20:10.661Z,2.20
2023-01-30T00:21:10.710Z,2.23
2023-01-30T00:22:10.670Z,2.22
2023-01-30T00:23:10.633Z,2.22
2023-01-30T00:24:10.506Z,2.26
2023-01-30T00:25:10.609Z,2.23
2023-01-30T00:26:10.663Z,2.26
2023-01-30T00:27:10.576Z,2.23
2023-01-30T00:28:10.573Z,2.27
2023-01-30T00:29:10.529Z,2.27
2023-01-30T00:30:10.593Z,2.27
2023-01-30T00:31:10.532Z,2.27
2023-01-30T00:32:10.582Z,2.28
2023-01-30T00:33:10.575Z,2.31
2023-01-30T00:34:10.395Z,2.30
2023-01-30T00:35:10.536Z,2.30
2023-01-30T00:36:10.416Z,2.30
2023-01-30T00:37:10.526Z,2.31
2023-01-30T00:38:10.575Z,2.30
2023-01-30T00:39:10.477Z,2.31
2023-01-30T00:40:10.450Z,2.30
2023-01-30T00:41:10.234Z,2.33
2023-01-30T00:42:10.480Z,2.31
2023-01-30T00:44:10.499Z,2.35
2023-01-30T00:45:10.398Z,2.34
2023-01-30T00:46:10.399Z,2.35
2023-01-30T00:47:10.347Z,2.35
2023-01-30T00:48:10.313Z,2.35
2023-01-30T00:49:10.447Z,2.35
2023-01-30T00:50:10.410Z,2.38
2023-01-30T00:51:10.361Z,2.35
2023-01-30T00:52:10.227Z,2.37
2023-01-30T00:53:10.141Z,2.37
2023-01-30T00:54:10.387Z,2.38
2023-01-30T00:55:10.343Z,2.38
2023-01-30T00:56:10.290Z,2.40
2023-01-30T00:57:10.266Z,2.40
2023-01-30T00:58:10.227Z,2.44
2023-01-30T00:59:10.216Z,2.46
2023-01-30T01:00:10.373Z,2.44
2023-01-30T01:01:10.246Z,2.45
2023-01-30T01:02:10.342Z,2.44
2023-01-30T01:03:10.229Z,2.45
2023-01-30T01:04:10.212Z,2.46
2023-01-30T01:05:10.053Z,2.48
2023-01-30T01:06:10.159Z,2.49
2023-01-30T01:07:10.161Z,2.49
2023-01-30T01:08:10.165Z,2.49
2023-01-30T01:09:10.182Z,2.52
2023-01-30T01:10:10.105Z,2.52
2023-01-30T01:11:10.194Z,2.52
2023-01-30T01:12:10.197Z,2.52
2023-01-30T01:13:10.103Z,2.53
2023-01-30T01:14:10.173Z,2.55
2023-01-30T01:15:10.148Z,2.56
2023-01-30T01:16:10.087Z,2.56
2023-01-30T01:17:10.056Z,2.56
2023-01-30T01:18:10.119Z,2.58
2023-01-30T01:19:10.018Z,2.58
2023-01-30T01:20:10.081Z,2.58
2023-01-30T01:21:10.051Z,2.55
2023-01-30T01:22:10.050Z,2.56
2023-01-30T01:23:09.965Z,2.56
2023-01-30T01:24:09.935Z,2.56
2023-01-30T01:25:09.954Z,2.53
2023-01-30T01:26:09.836Z,2.52
2023-01-30T01:27:09.989Z,2.52
2023-01-30T01:28:09.921Z,2.52
2023-01-30T01:29:09.949Z,2.52
2023-01-30T01:30:10.015Z,2.52
2023-01-30T01:31:10.081Z,2.51
2023-01-30T01:32:10.094Z,2.51
2023-01-30T01:33:09.798Z,2.49
2023-01-30T01:34:09.884Z,2.51
2023-01-30T01:35:09.915Z,2.49
2023-01-30T01:36:09.918Z,2.48
2023-01-30T01:37:09.879Z,2.48
2023-01-30T01:38:09.980Z,2.46
2023-01-30T01:39:09.844Z,2.46
2023-01-30T01:40:09.948Z,2.45
2023-01-30T01:41:09.808Z,2.44
2023-01-30T01:42:10.641Z,2.44
2023-01-30T01:43:09.901Z,2.41
2023-01-30T01:44:09.764Z,2.38
2023-01-30T01:45:09.744Z,2.40
2023-01-30T01:46:09.758Z,2.38
2023-01-30T01:47:09.746Z,2.37
2023-01-30T01:48:09.728Z,2.44
2023-01-30T01:49:09.804Z,2.40
2023-01-30T01:50:09.792Z,2.41
2023-01-30T01:51:09.767Z,2.41
2023-01-30T01:52:09.753Z,2.40
2023-01-30T01:53:09.726Z,2.44
2023-01-30T01:54:09.707Z,2.41
2023-01-30T01:55:09.840Z,2.44
2023-01-30T01:56:09.653Z,2.45
2023-01-30T01:57:09.646Z,2.44
2023-01-30T01:58:09.618Z,2.41
2023-01-30T01:59:09.596Z,2.40
2023-01-30T02:00:09.598Z,2.41
2023-01-30T02:01:09.760Z,2.44
2023-01-30T02:02:09.728Z,2.41
2023-01-30T02:03:09.606Z,2.41
2023-01-30T02:04:09.631Z,2.41
2023-01-30T02:05:09.763Z,2.41
2023-01-30T02:06:09.605Z,2.41
2023-01-30T02:07:09.528Z,2.40
2023-01-30T02:08:09.677Z,2.38
2023-01-30T02:09:09.609Z,2.41
2023-01-30T02:10:09.465Z,2.40
2023-01-30T02:11:09.554Z,2.40
2023-01-30T02:12:09.543Z,2.41
2023-01-30T02:13:09.479Z,2.41
2023-01-30T02:14:09.566Z,2.44
2023-01-30T02:15:09.496Z,2.46
2023-01-30T02:16:09.576Z,2.46
2023-01-30T02:17:09.507Z,2.48
2023-01-30T02:18:09.592Z,2.51
2023-01-30T02:19:09.513Z,2.49
2023-01-30T02:20:09.517Z,2.52
2023-01-30T02:21:09.498Z,2.49
2023-01-30T02:22:09.570Z,2.51
2023-01-30T02:23:09.478Z,2.51
2023-01-30T02:24:09.455Z,2.55
2023-01-30T02:25:09.428Z,2.55
2023-01-30T02:26:09.442Z,2.52
2023-01-30T02:27:09.398Z,2.53
2023-01-30T02:28:09.456Z,2.55
2023-01-30T02:29:09.387Z,2.55
2023-01-30T02:30:09.343Z,2.55
2023-01-30T02:31:09.451Z,2.58
2023-01-30T02:32:09.341Z,2.59
2023-01-30T02:33:09.328Z,2.59
2023-01-30T02:34:09.407Z,2.61
2023-01-30T02:35:09.296Z,2.63
2023-01-30T02:36:09.283Z,2.64
2023-01-30T02:37:09.344Z,2.67
2023-01-30T02:38:09.329Z,2.69
2023-01-30T02:39:09.406Z,2.70
2023-01-30T02:40:09.325Z,2.67
2023-01-30T02:41:09.239Z,2.73
2023-01-30T02:42:09.201Z,2.73
2023-01-30T02:43:09.224Z,2.74
2023-01-30T02:44:09.210Z,2.79
2023-01-30T02:45:09.278Z,2.79
2023-01-30T02:46:09.436Z,2.81
2023-01-30T02:47:09.247Z,2.82
2023-01-30T02:48:09.149Z,2.85
2023-01-30T02:49:09.224Z,2.82
2023-01-30T02:50:09.208Z,2.84
2023-01-30T02:51:09.186Z,2.84
2023-01-30T02:52:09.181Z,2.87
2023-01-30T02:53:09.154Z,2.88
2023-01-30T02:54:09.135Z,2.88
2023-01-30T02:55:09.203Z,2.89
2023-01-30T02:56:09.107Z,2.92
2023-01-30T02:57:09.098Z,2.92
2023-01-30T02:58:09.089Z,2.94
2023-01-30T02:59:09.073Z,2.95
2023-01-30T03:00:09.063Z,3.00
2023-01-30T03:01:09.241Z,2.97
2023-01-30T03:02:09.129Z,3.00
2023-01-30T03:03:09.088Z,3.02
2023-01-30T03:04:09.161Z,3.02
2023-01-30T03:05:09.087Z,2.98
2023-01-30T03:06:09.025Z,3.02
2023-01-30T03:07:08.882Z,3.03
2023-01-30T03:08:08.871Z,3.02
2023-01-30T03:09:08.863Z,3.03
2023-01-30T03:10:09.105Z,3.05
2023-01-30T03:11:09.017Z,3.06
2023-01-30T03:12:09.029Z,3.06
2023-01-30T03:13:09.033Z,3.06
2023-01-30T03:14:08.947Z,3.05
2023-01-30T03:15:08.924Z,3.07
2023-01-30T03:16:08.927Z,3.09
2023-01-30T03:17:08.933Z,3.07
2023-01-30T03:18:08.973Z,3.07
2023-01-30T03:19:08.981Z,3.07
2023-01-30T03:20:08.905Z,3.10
2023-01-30T03:21:08.911Z,3.09
2023-01-30T03:22:08.926Z,3.10
2023-01-30T03:23:09.013Z,3.15
2023-01-30T03:24:09.009Z,3.15
2023-01-30T03:25:08.932Z,3.15
2023-01-30T03:26:08.856Z,3.18
2023-01-30T03:27:08.865Z,3.16
2023-01-30T03:28:08.874Z,3.18
2023-01-30T03:29:08.882Z,3.20
2023-01-30T03:30:08.884Z,3.20
2023-01-30T03:31:08.897Z,3.20
2023-01-30T03:32:08.832Z,3.21
2023-01-30T03:33:08.848Z,3.23
2023-01-30T03:34:08.850Z,3.24
2023-01-30T03:35:08.706Z,3.23
2023-01-30T03:36:08.759Z,3.24
2023-01-30T03:37:08.826Z,3.25
2023-01-30T03:38:08.738Z,3.25
2023-01-30T03:39:08.744Z,3.30
2023-01-30T03:40:08.816Z,3.28
2023-01-30T03:41:08.659Z,3.31
2023-01-30T03:42:08.750Z,3.30
2023-01-30T03:43:08.685Z,3.33
2023-01-30T03:44:08.677Z,3.34
2023-01-30T03:45:08.763Z,3.36
2023-01-30T03:46:08.797Z,3.40
2023-01-30T03:47:08.686Z,3.42
2023-01-30T03:48:08.450Z,3.43
2023-01-30T03:49:08.659Z,3.44
2023-01-30T03:50:08.751Z,3.46
2023-01-30T03:51:08.592Z,3.46
2023-01-30T03:52:08.681Z,3.49
2023-01-30T03:53:08.571Z,3.49
2023-01-30T03:54:08.588Z,3.54
2023-01-30T03:55:08.578Z,3.54
2023-01-30T03:56:08.722Z,3.53
2023-01-30T03:57:08.566Z,3.57
2023-01-30T03:58:08.541Z,3.54
2023-01-30T03:59:08.577Z,3.54
2023-01-30T04:00:08.554Z,3.60
2023-01-30T04:01:08.636Z,3.64
2023-01-30T04:02:08.545Z,3.62
2023-01-30T04:03:08.514Z,3.64
2023-01-30T04:04:08.544Z,3.67
2023-01-30T04:05:08.483Z,3.70
2023-01-30T04:06:08.448Z,3.70
2023-01-30T04:07:08.492Z,3.72
2023-01-30T04:08:08.541Z,3.72
2023-01-30T04:09:08.453Z,3.72
2023-01-30T04:10:08.543Z,3.75
2023-01-30T04:11:08.384Z,3.75
2023-01-30T04:12:08.398Z,3.75
2023-01-30T04:13:08.393Z,3.76
2023-01-30T04:14:08.471Z,3.75
2023-01-30T04:15:08.408Z,3.76
2023-01-30T04:16:08.407Z,3.75
2023-01-30T04:17:08.404Z,3.75
2023-01-30T04:18:08.316Z,3.75
2023-01-30T04:19:08.394Z,3.75
2023-01-30T04:20:08.223Z,3.76
2023-01-30T04:21:08.294Z,3.78
2023-01-30T04:22:08.207Z,3.76
2023-01-30T04:23:08.187Z,3.76
2023-01-30T04:24:08.284Z,3.76
2023-01-30T04:25:08.409Z,3.76
2023-01-30T04:26:08.068Z,3.76
2023-01-30T04:27:08.262Z,3.78
2023-01-30T04:28:08.218Z,3.76
2023-01-30T04:29:08.314Z,3.78
2023-01-30T04:30:08.189Z,3.76
2023-01-30T04:31:08.234Z,3.78
2023-01-30T04:32:08.195Z,3.75
2023-01-30T04:33:08.175Z,3.78
2023-01-30T04:34:08.260Z,3.80
2023-01-30T04:35:08.173Z,3.80
2023-01-30T04:36:08.250Z,3.79
2023-01-30T04:37:08.175Z,3.82
2023-01-30T04:38:08.106Z,3.82
2023-01-30T04:39:08.208Z,3.79
2023-01-30T04:40:08.226Z,3.80
2023-01-30T04:41:08.161Z,3.80
2023-01-30T04:42:07.999Z,3.82
2023-01-30T04:43:08.171Z,3.80
2023-01-30T04:44:08.043Z,3.82
2023-01-30T04:45:08.056Z,3.83
2023-01-30T04:46:08.064Z,3.83
2023-01-30T04:47:08.080Z,3.83
2023-01-30T04:48:08.072Z,3.83
2023-01-30T04:49:08.074Z,3.85
2023-01-30T04:50:07.950Z,3.85
2023-01-30T04:51:07.977Z,3.88
2023-01-30T04:52:08.109Z,3.85
2023-01-30T04:53:07.942Z,3.88
2023-01-30T04:54:07.890Z,3.86
2023-01-30T04:55:07.983Z,3.88
2023-01-30T04:56:07.928Z,3.88
2023-01-30T04:57:07.938Z,3.89
2023-01-30T04:58:07.855Z,3.92
2023-01-30T04:59:07.857Z,3.92
2023-01-30T05:00:07.731Z,3.92
2023-01-30T05:01:07.910Z,3.94
2023-01-30T05:02:07.883Z,3.96
2023-01-30T05:03:07.859Z,3.92
2023-01-30T05:04:07.808Z,3.94
2023-01-30T05:05:07.687Z,3.96
2023-01-30T05:06:07.935Z,3.94
2023-01-30T05:07:07.838Z,3.90
2023-01-30T05:08:07.851Z,3.94
2023-01-30T05:09:07.712Z,3.96
2023-01-30T05:10:07.746Z,3.96
2023-01-30T05:11:07.758Z,3.96
2023-01-30T05:12:07.855Z,3.96
2023-01-30T05:13:07.723Z,3.92
2023-01-30T05:14:07.729Z,3.96
2023-01-30T05:15:07.646Z,3.97
2023-01-30T05:16:07.699Z,4.00
2023-01-30T05:17:07.822Z,4.00
2023-01-30T05:18:07.677Z,4.03
2023-01-30T05:19:07.683Z,4.04
2023-01-30T05:20:07.748Z,4.04
2023-01-30T05:21:07.682Z,4.07
2023-01-30T05:22:07.705Z,4.06
2023-01-30T05:23:07.777Z,4.06
2023-01-30T05:24:07.449Z,4.07
2023-01-30T05:25:07.656Z,4.08
2023-01-30T05:26:07.689Z,4.07
2023-01-30T05:27:07.546Z,4.10
2023-01-30T05:28:07.423Z,4.08
2023-01-30T05:29:07.457Z,4.10
2023-01-30T05:30:07.559Z,4.12
2023-01-30T05:31:07.700Z,4.10
2023-01-30T05:32:07.395Z,4.14
2023-01-30T05:33:07.603Z,4.14
2023-01-30T05:34:07.623Z,4.14
2023-01-30T05:35:07.579Z,4.14
2023-01-30T05:36:07.377Z,4.18
2023-01-30T05:37:07.292Z,4.16
2023-01-30T05:38:07.462Z,4.18
2023-01-30T05:39:07.521Z,4.18
2023-01-30T05:40:07.348Z,4.21
2023-01-30T05:41:07.425Z,4.21
2023-01-30T05:42:07.301Z,4.21
2023-01-30T05:43:07.279Z,4.19
2023-01-30T05:44:07.309Z,4.18
2023-01-30T05:45:07.543Z,4.19
2023-01-30T05:46:07.380Z,4.19
2023-01-30T05:47:07.422Z,4.19
2023-01-30T05:48:07.295Z,4.21
2023-01-30T05:49:07.197Z,4.22
2023-01-30T05:50:07.356Z,4.22
2023-01-30T05:51:07.478Z,4.22
2023-01-30T05:52:07.401Z,4.24
2023-01-30T05:53:07.111Z,4.25
2023-01-30T05:54:07.227Z,4.24
2023-01-30T05:55:07.344Z,4.24
2023-01-30T05:56:07.328Z,4.26
2023-01-30T05:57:07.095Z,4.24
2023-01-30T05:58:07.103Z,4.25
2023-01-30T05:59:07.171Z,4.26
2023-01-30T06:00:07.083Z,4.26
2023-01-30T06:01:07.216Z,4.26
2023-01-30T06:02:07.078Z,4.29
2023-01-30T06:03:07.215Z,4.28
2023-01-30T06:04:07.257Z,4.32
2023-01-30T06:05:07.265Z,4.36
2023-01-30T06:06:07.232Z,4.36
2023-01-30T06:07:07.031Z,4.34
2023-01-30T06:08:07.211Z,4.34
2023-01-30T06:09:07.129Z,4.37
2023-01-30T06:10:07.089Z,4.37
2023-01-30T06:11:07.267Z,4.37
2023-01-30T06:12:07.278Z,4.36
2023-01-30T06:13:07.116Z,4.37
2023-01-30T06:14:07.119Z,4.37
2023-01-30T06:15:07.108Z,4.39
2023-01-30T06:16:07.101Z,4.37
2023-01-30T06:17:07.237Z,4.39
2023-01-30T06:18:07.107Z,4.40
2023-01-30T06:19:07.097Z,4.40
2023-01-30T06:20:07.105Z,4.43
2023-01-30T06:21:07.029Z,4.43
2023-01-30T06:22:07.042Z,4.43
2023-01-30T06:23:07.127Z,4.44
2023-01-30T06:24:07.050Z,4.44
2023-01-30T06:25:06.814Z,4.47
2023-01-30T06:26:09.132Z,4.50
2023-01-30T06:27:06.825Z,4.47
2023-01-30T06:28:07.050Z,4.47
2023-01-30T06:29:06.902Z,4.54
2023-01-30T06:30:06.803Z,4.52
2023-01-30T06:31:07.027Z,4.52
2023-01-30T06:32:06.854Z,4.55
2023-01-30T06:33:06.846Z,4.58
2023-01-30T06:34:07.026Z,4.59
2023-01-30T06:35:06.891Z,4.58
2023-01-30T06:36:06.779Z,4.59
2023-01-30T06:37:06.907Z,4.58
2023-01-30T06:38:06.812Z,4.57
2023-01-30T06:39:06.951Z,4.58
2023-01-30T06:40:06.833Z,4.58
2023-01-30T06:41:06.784Z,4.55
2023-01-30T06:42:07.347Z,4.58
2023-01-30T06:43:06.584Z,4.58
2023-01-30T06:44:06.688Z,4.62
2023-01-30T06:45:06.597Z,4.58
2023-01-30T06:46:06.624Z,4.59
2023-01-30T06:47:06.906Z,4.59
2023-01-30T06:48:06.713Z,4.62
2023-01-30T06:49:06.538Z,4.59
2023-01-30T06:50:06.633Z,4.61
2023-01-30T06:51:06.763Z,4.61
2023-01-30T06:52:06.657Z,4.65
2023-01-30T06:53:06.501Z,4.62
2023-01-30T06:54:06.452Z,4.64
2023-01-30T06:55:06.630Z,4.64
2023-01-30T06:56:06.621Z,4.64
2023-01-30T06:57:06.734Z,4.65
2023-01-30T06:58:06.607Z,4.65
2023-01-30T06:59:06.578Z,4.65
2023-01-30T07:00:06.425Z,4.65
2023-01-30T07:01:06.385Z,4.70
2023-01-30T07:02:06.545Z,4.69
2023-01-30T07:03:06.439Z,4.69
2023-01-30T07:04:06.372Z,4.70
2023-01-30T07:05:06.395Z,4.73
2023-01-30T07:06:06.326Z,4.70
2023-01-30T07:07:07.205Z,4.72
2023-01-30T07:08:06.362Z,4.76
2023-01-30T07:09:06.294Z,4.72
2023-01-30T07:10:08.608Z,4.73
2023-01-30T07:11:06.266Z,4.75
2023-01-30T07:12:06.294Z,4.72
2023-01-30T07:13:06.301Z,4.73
2023-01-30T07:14:07.074Z,4.72
2023-01-30T07:15:06.360Z,4.73
2023-01-30T07:16:06.481Z,4.75
2023-01-30T07:17:06.493Z,4.75
2023-01-30T07:18:06.226Z,4.76
2023-01-30T07:19:06.190Z,4.76
2023-01-30T07:20:06.195Z,4.76
2023-01-30T07:21:06.277Z,4.75
2023-01-30T07:22:06.176Z,4.76
2023-01-30T07:23:06.167Z,4.77
2023-01-30T07:24:06.170Z,4.75
2023-01-30T07:25:06.179Z,4.76
2023-01-30T07:26:06.134Z,4.76
2023-01-30T07:27:06.125Z,4.77
2023-01-30T07:28:06.125Z,4.77
2023-01-30T07:29:06.110Z,4.76
2023-01-30T07:30:06.064Z,4.77
2023-01-30T07:31:06.061Z,4.79
2023-01-30T07:32:06.299Z,4.80
2023-01-30T07:33:06.213Z,4.77
2023-01-30T07:34:06.015Z,4.83
2023-01-30T07:35:06.173Z,4.80
2023-01-30T07:36:05.994Z,4.80
2023-01-30T07:37:06.028Z,4.80
2023-01-30T07:38:06.028Z,4.80
2023-01-30T07:39:06.004Z,4.84
2023-01-30T07:40:06.140Z,4.80
2023-01-30T07:41:06.265Z,4.84
2023-01-30T07:42:06.248Z,4.84
2023-01-30T07:43:06.059Z,4.83
2023-01-30T07:44:05.971Z,4.84
2023-01-30T07:45:06.070Z,4.88
2023-01-30T07:46:05.959Z,4.89
2023-01-30T07:47:06.025Z,4.89
2023-01-30T07:48:06.068Z,4.88
2023-01-30T07:49:06.046Z,4.88
2023-01-30T07:50:05.822Z,4.89
2023-01-30T07:51:05.991Z,4.88
2023-01-30T07:52:05.972Z,4.89
2023-01-30T07:53:05.978Z,4.89
2023-01-30T07:54:06.021Z,4.89
2023-01-30T07:55:05.788Z,4.88
2023-01-30T07:56:05.775Z,4.91
2023-01-30T07:57:05.776Z,4.91
2023-01-30T07:58:05.755Z,4.91
2023-01-30T07:59:05.921Z,4.91
2023-01-30T08:00:05.739Z,4.92
2023-01-30T08:01:06.015Z,4.92
2023-01-30T08:02:05.879Z,4.91
2023-01-30T08:03:05.998Z,4.92
2023-01-30T08:04:05.890Z,4.94
2023-01-30T08:05:06.337Z,4.94
2023-01-30T08:06:06.021Z,4.89
2023-01-30T08:07:05.668Z,4.91
2023-01-30T08:08:05.788Z,4.88
2023-01-30T08:09:05.783Z,4.83
2023-01-30T08:10:05.778Z,4.80
2023-01-30T08:11:05.636Z,4.84
2023-01-30T08:12:05.873Z,4.91
2023-01-30T08:13:05.742Z,5.04
2023-01-30T08:14:05.570Z,5.19
2023-01-30T08:15:05.574Z,5.31
2023-01-30T08:16:05.779Z,5.50
2023-01-30T08:17:05.606Z,5.50
2023-01-30T08:18:05.733Z,5.41
2023-01-30T08:19:05.523Z,5.32
2023-01-30T08:20:05.515Z,5.28
2023-01-30T08:21:05.511Z,5.31
2023-01-30T08:22:05.471Z,5.45
2023-01-30T08:23:05.528Z,6.29
2023-01-30T08:24:05.699Z,6.09
2023-01-30T08:25:05.478Z,5.91
2023-01-30T08:26:05.647Z,7.23
2023-01-30T08:27:05.616Z,8.21
2023-01-30T08:28:05.429Z,8.86
2023-01-30T08:29:05.453Z,8.94
2023-01-30T08:30:05.778Z,9.34
2023-01-30T08:31:05.512Z,9.71
2023-01-30T08:32:05.375Z,10.32
2023-01-30T08:33:05.390Z,10.52
2023-01-30T08:34:05.649Z,10.21
2023-01-30T08:35:05.640Z,10.43
2023-01-30T08:36:05.622Z,10.91
2023-01-30T08:37:05.595Z,10.71
2023-01-30T08:38:05.563Z,9.88
2023-01-30T08:39:05.545Z,10.44
2023-01-30T08:40:05.511Z,10.56
2023-01-30T08:41:05.427Z,10.59
2023-01-30T08:42:05.321Z,10.59
2023-01-30T08:43:05.408Z,10.00
2023-01-30T08:44:05.642Z,10.15
2023-01-30T08:45:05.252Z,10.58
2023-01-30T08:46:05.618Z,10.70
2023-01-30T08:47:05.527Z,10.74
2023-01-30T08:48:05.491Z,10.96
2023-01-30T08:49:05.458Z,11.06
2023-01-30T08:50:05.478Z,11.57
2023-01-30T08:51:05.360Z,11.90
2023-01-30T08:52:05.545Z,11.49
2023-01-30T08:53:05.489Z,10.94
2023-01-30T08:54:05.425Z,11.16
2023-01-30T08:55:05.365Z,11.14
2023-01-30T08:56:05.146Z,11.06
2023-01-30T08:57:05.327Z,10.39
2023-01-30T08:58:05.456Z,9.82
2023-01-30T08:59:05.168Z,9.50
2023-01-30T09:00:05.335Z,9.15
2023-01-30T09:01:05.373Z,8.83
2023-01-30T09:02:05.115Z,8.55
2023-01-30T09:03:05.108Z,8.39
2023-01-30T09:04:05.312Z,8.28
2023-01-30T09:05:05.091Z,8.12
2023-01-30T09:06:05.189Z,8.07
2023-01-30T09:07:05.159Z,8.17
2023-01-30T09:08:05.043Z,8.17
2023-01-30T09:09:05.209Z,8.37
2023-01-30T09:10:05.423Z,8.11
2023-01-30T09:11:05.094Z,7.89
2023-01-30T09:12:05.013Z,7.75
2023-01-30T09:13:04.985Z,7.67
2023-01-30T09:14:05.224Z,7.79
2023-01-30T09:15:05.055Z,7.89
2023-01-30T09:16:04.983Z,7.96
2023-01-30T09:17:05.096Z,7.71
2023-01-30T09:18:05.073Z,7.41
2023-01-30T09:19:04.981Z,7.13
2023-01-30T09:20:05.128Z,6.90
2023-01-30T09:21:05.058Z,6.66
2023-01-30T09:22:05.060Z,6.46
2023-01-30T09:23:04.869Z,6.35
2023-01-30T09:24:05.060Z,6.33
2023-01-30T09:25:04.902Z,6.28
2023-01-30T09:26:04.890Z,6.26
2023-01-30T09:27:04.877Z,6.32
2023-01-30T09:28:04.845Z,6.32
2023-01-30T09:29:05.080Z,6.29
2023-01-30T09:30:05.029Z,6.28
2023-01-30T09:31:05.095Z,6.33
2023-01-30T09:32:04.934Z,6.32
2023-01-30T09:33:05.132Z,6.30
2023-01-30T09:34:04.980Z,6.22
2023-01-30T09:35:04.935Z,6.22
2023-01-30T09:36:04.768Z,6.16
2023-01-30T09:37:05.270Z,6.14
2023-01-30T09:38:04.880Z,6.10
2023-01-30T09:39:04.748Z,6.09
2023-01-30T09:40:04.998Z,6.00
2023-01-30T09:41:04.920Z,6.01
2023-01-30T09:42:04.881Z,6.09
2023-01-30T09:43:05.090Z,6.10
2023-01-30T09:44:05.021Z,6.16
2023-01-30T09:45:04.845Z,7.81
2023-01-30T09:46:04.991Z,9.06
2023-01-30T09:47:04.874Z,8.66
2023-01-30T09:48:04.635Z,8.14
2023-01-30T09:49:04.615Z,7.87
2023-01-30T09:50:04.600Z,7.59
2023-01-30T09:51:04.853Z,7.37
2023-01-30T09:52:04.790Z,7.12
2023-01-30T09:53:04.853Z,6.97
2023-01-30T09:54:04.582Z,6.83
2023-01-30T09:55:04.741Z,6.73
2023-01-30T09:56:04.689Z,6.80
2023-01-30T09:57:04.676Z,7.07
2023-01-30T09:58:04.721Z,6.99
2023-01-30T09:59:04.686Z,6.83
2023-01-30T10:00:04.558Z,6.68
2023-01-30T10:01:04.527Z,6.65
2023-01-30T10:02:04.472Z,6.56
2023-01-30T10:03:04.629Z,6.43
2023-01-30T10:04:04.730Z,6.30
2023-01-30T10:05:04.648Z,6.22
2023-01-30T10:06:04.525Z,6.11
2023-01-30T10:07:04.537Z,6.06
2023-01-30T10:08:04.452Z,6.00
2023-01-30T10:09:04.421Z,6.00
2023-01-30T10:10:04.465Z,6.07
2023-01-30T10:11:10.139Z,6.04
2023-01-30T10:12:04.646Z,5.98
2023-01-30T10:13:04.616Z,5.96
2023-01-30T10:14:04.464Z,5.93
2023-01-30T10:15:04.486Z,5.89
2023-01-30T10:16:04.412Z,5.83
2023-01-30T10:17:04.352Z,5.78
2023-01-30T10:18:04.491Z,5.77
2023-01-30T10:19:04.495Z,5.75
2023-01-30T10:20:04.536Z,5.77
2023-01-30T10:21:04.534Z,5.77
2023-01-30T10:22:04.298Z,5.81
2023-01-30T10:23:04.549Z,5.82
2023-01-30T10:24:04.556Z,5.85
2023-01-30T10:25:04.573Z,5.95
2023-01-30T10:26:04.329Z,6.03
2023-01-30T10:27:04.950Z,6.11
2023-01-30T10:28:04.534Z,6.07
2023-01-30T10:29:07.607Z,6.03
2023-01-30T10:30:04.227Z,6.00
2023-01-30T10:31:04.276Z,5.96
2023-01-30T10:32:04.491Z,5.92
2023-01-30T10:33:04.498Z,5.89
2023-01-30T10:34:04.253Z,5.88
2023-01-30T10:35:04.261Z,5.82
2023-01-30T10:36:04.385Z,5.81
2023-01-30T10:37:04.115Z,5.78
2023-01-30T10:38:04.224Z,5.77
2023-01-30T10:39:04.200Z,5.78
2023-01-30T10:40:04.113Z,5.75
2023-01-30T10:41:04.372Z,5.81
2023-01-30T10:42:04.336Z,5.82
2023-01-30T10:43:04.319Z,5.81
2023-01-30T10:44:04.380Z,5.77
2023-01-30T10:45:04.031Z,5.74
2023-01-30T10:46:04.032Z,5.70
2023-01-30T10:47:04.212Z,5.64
2023-01-30T10:48:04.820Z,5.59
2023-01-30T10:49:04.000Z,5.55
2023-01-30T10:50:04.186Z,5.48
2023-01-30T10:51:03.962Z,5.46
2023-01-30T10:52:04.180Z,5.46
2023-01-30T10:53:04.064Z,5.46
2023-01-30T10:54:04.367Z,5.38
2023-01-30T10:55:04.038Z,5.40
2023-01-30T10:56:04.140Z,5.38
2023-01-30T10:57:04.266Z,5.34
2023-01-30T10:58:04.255Z,5.31
2023-01-30T10:59:03.941Z,5.27
2023-01-30T11:00:04.266Z,5.28
2023-01-30T11:01:03.985Z,5.23
2023-01-30T11:02:03.996Z,5.23
2023-01-30T11:03:03.888Z,5.22
2023-01-30T11:04:03.912Z,5.23
2023-01-30T11:05:03.858Z,5.30
2023-01-30T11:06:03.850Z,5.30
2023-01-30T11:07:03.817Z,5.37
2023-01-30T11:08:03.779Z,5.48
2023-01-30T11:09:03.762Z,5.56
2023-01-30T11:10:03.812Z,5.60
2023-01-30T11:11:03.807Z,5.59
2023-01-30T11:12:03.761Z,5.57
2023-01-30T11:13:03.728Z,5.56
2023-01-30T11:14:03.735Z,5.56
2023-01-30T11:15:03.726Z,5.55
2023-01-30T11:16:03.777Z,5.59
2023-01-30T11:17:03.711Z,5.57
2023-01-30T11:18:27.191Z,5.57
2023-01-30T11:19:19.778Z,5.57
2023-01-30T11:20:03.736Z,5.55
2023-01-30T11:21:03.716Z,5.53
2023-01-30T11:22:03.716Z,5.50
2023-01-30T11:23:03.670Z,5.48
2023-01-30T11:24:03.663Z,5.46
2023-01-30T11:25:03.640Z,5.48
2023-01-30T11:26:11.314Z,5.57
2023-01-30T11:27:03.690Z,5.63
2023-01-30T11:28:03.580Z,5.64
2023-01-30T11:29:03.607Z,5.67
2023-01-30T11:30:03.596Z,5.57
2023-01-30T11:31:03.631Z,5.64
2023-01-30T11:32:03.642Z,5.67
2023-01-30T11:33:03.589Z,5.71
2023-01-30T11:34:03.579Z,5.68
2023-01-30T11:35:03.483Z,5.71
2023-01-30T11:36:04.543Z,5.73
2023-01-30T11:37:03.505Z,5.75
2023-01-30T11:38:03.587Z,5.78
2023-01-30T11:39:03.447Z,5.82
2023-01-30T11:40:03.457Z,5.78
2023-01-30T11:41:03.573Z,5.74
2023-01-30T11:42:03.448Z,5.74
2023-01-30T11:43:03.427Z,5.77
2023-01-30T11:44:03.432Z,5.77
2023-01-30T11:45:16.803Z,5.75
2023-01-30T11:46:03.458Z,5.74
2023-01-30T11:47:03.375Z,5.74
2023-01-30T11:48:03.932Z,5.70
2023-01-30T11:49:44.481Z,5.70
2023-01-30T11:50:03.660Z,5.73
2023-01-30T11:51:03.339Z,5.81
2023-01-30T11:52:03.389Z,5.83
2023-01-30T11:53:03.323Z,5.88
2023-01-30T11:54:03.344Z,6.04
2023-01-30T11:55:03.312Z,6.09
2023-01-30T11:56:07.970Z,6.07
2023-01-30T11:57:03.302Z,6.14
2023-01-30T11:58:03.321Z,6.22
2023-01-30T11:59:03.242Z,6.32
2023-01-30T12:00:03.289Z,6.41
2023-01-30T12:01:03.265Z,6.47
2023-01-30T12:02:03.291Z,6.41
2023-01-30T12:03:03.353Z,6.28
2023-01-30T12:04:03.229Z,6.16
2023-01-30T12:05:03.202Z,6.14
2023-01-30T12:06:03.191Z,6.09
2023-01-30T12:07:03.205Z,6.14
2023-01-30T12:08:03.161Z,6.14
2023-01-30T12:09:03.213Z,6.21
2023-01-30T12:10:03.126Z,6.25
2023-01-30T12:11:03.272Z,6.32
2023-01-30T12:12:03.263Z,6.41
2023-01-30T12:13:03.124Z,6.43
2023-01-30T12:14:03.172Z,6.43
2023-01-30T12:15:03.095Z,6.36
2023-01-30T12:16:03.318Z,6.38
2023-01-30T12:17:03.332Z,6.40
2023-01-30T12:18:03.224Z,6.47
2023-01-30T12:19:03.071Z,6.51
2023-01-30T12:20:03.217Z,6.48
2023-01-30T12:21:03.193Z,6.53
2023-01-30T12:22:03.113Z,6.63
2023-01-30T12:23:03.044Z,6.66
2023-01-30T12:24:03.127Z,6.69
2023-01-30T12:25:03.029Z,6.73
2023-01-30T12:26:03.088Z,6.71
2023-01-30T12:27:03.202Z,6.73
2023-01-30T12:28:03.179Z,6.68
2023-01-30T12:29:03.141Z,6.66
2023-01-30T12:30:03.130Z,6.76
2023-01-30T12:31:03.224Z,6.80
2023-01-30T12:32:02.924Z,6.71
2023-01-30T12:33:02.994Z,6.63
2023-01-30T12:34:03.104Z,6.62
2023-01-30T12:35:03.088Z,6.56
2023-01-30T12:36:03.197Z,6.58
2023-01-30T12:37:03.195Z,6.65
2023-01-30T12:38:03.162Z,6.68
2023-01-30T12:39:03.033Z,6.65
2023-01-30T12:40:03.031Z,6.56
2023-01-30T12:41:03.120Z,6.54
2023-01-30T12:42:02.977Z,6.50
2023-01-30T12:43:02.963Z,6.50
2023-01-30T12:44:02.955Z,6.43
2023-01-30T12:45:02.821Z,6.41
2023-01-30T12:46:03.079Z,6.35
2023-01-30T12:47:02.991Z,6.29
2023-01-30T12:48:02.986Z,6.28
2023-01-30T12:49:10.890Z,6.22
2023-01-30T12:50:02.940Z,6.14
2023-01-30T12:51:02.916Z,6.07
2023-01-30T12:52:02.739Z,6.09
2023-01-30T12:53:02.874Z,6.04
2023-01-30T12:54:02.845Z,5.93
2023-01-30T12:55:02.821Z,5.93
2023-01-30T12:56:02.822Z,5.86
2023-01-30T12:57:02.776Z,5.81
2023-01-30T12:58:02.979Z,5.77
2023-01-30T12:59:02.937Z,5.70
2023-01-30T13:00:02.914Z,5.57
2023-01-30T13:01:02.880Z,5.48
2023-01-30T13:02:02.826Z,5.32
2023-01-30T13:03:03.121Z,5.28
2023-01-30T13:04:02.733Z,5.25
2023-01-30T13:05:04.540Z,5.25
2023-01-30T13:06:02.915Z,5.16
2023-01-30T13:07:02.850Z,5.10
2023-01-30T13:08:02.815Z,4.99
2023-01-30T13:09:02.792Z,4.83
2023-01-30T13:10:02.774Z,4.64
2023-01-30T13:11:02.609Z,4.50
2023-01-30T13:12:02.509Z,4.33
2023-01-30T13:13:02.708Z,4.19
2023-01-30T13:14:02.675Z,4.15
2023-01-30T13:15:02.899Z,4.07
2023-01-30T13:16:02.679Z,4.01
2023-01-30T13:17:02.649Z,3.98
2023-01-30T13:18:02.449Z,3.92